Wetter Neuhaus/WN - aktuelle & historische Daten
 
Tägliche Zusammenfassung für September 22, 2017 Einheit:  Metrisch    English   Beide
« minus 1 Tag
plus 1 Tag »
Tägliche Wöchentliche Monatliche Jährliche
  Aktuell: Höchstwert: Tiefstwert: Durchschnitt:
Temperatur: 15.1 °C 17.2 °C 7.1 °C 11.2 °C
Taupunkt: 10.9 °C 12.4 °C 7.0 °C 9.7 °C
Luftfeuchte: 76 % 99 % 67 % 91 %
Windgeschwindigkeit: 0.0 km/h 0.0 km/h 0.0 km/h 0 km/h
Windböe: 0.0 km/h 0.0 km/h - -
Wind:Ruhig - - Nord
Druck: 1022.2 hPa 1022.6 hPa 1020.9 hPa -
Niederschlag: 0.0 mm      
Historical Graphs
 
 














tabellarische Daten für September 22, 2017
Zeit Temperatur Taupunkt Luftdruck Wind Windgeschwindigkeit Windböe Luftfeuchte Regen (pro h) Solar Bedingungen
00:00 9.7 °C 9.6 °C 1021.6 hPa Ruhig     99 % 0.0 mm 0.00 W/m2
00:05 9.7 °C 9.6 °C 1021.6 hPa Ruhig     99 % 0.0 mm 0.00 W/m2
00:10 9.7 °C 9.6 °C 1021.6 hPa Ruhig     99 % 0.0 mm 0.00 W/m2
00:16 9.6 °C 9.5 °C 1021.6 hPa Ruhig     99 % 0.0 mm 0.00 W/m2
00:21 9.6 °C 9.5 °C 1021.6 hPa Ruhig     99 % 0.0 mm 0.00 W/m2
00:26 9.6 °C 9.5 °C 1021.6 hPa Ruhig     99 % 0.0 mm 0.00 W/m2
00:31 9.5 °C 9.4 °C 1021.6 hPa Ruhig     99 % 0.0 mm 0.00 W/m2
00:37 9.5 °C 9.4 °C 1021.6 hPa Ruhig     99 % 0.0 mm 0.00 W/m2
00:42 9.5 °C 9.4 °C 1021.2 hPa Ruhig     99 % 0.0 mm 0.00 W/m2
00:47 9.4 °C 9.3 °C 1021.6 hPa Ruhig     99 % 0.0 mm 0.00 W/m2
00:53 9.4 °C 9.3 °C 1021.2 hPa Ruhig     99 % 0.0 mm 0.00 W/m2
00:58 9.4 °C 9.3 °C 1021.6 hPa Ruhig     99 % 0.0 mm 0.00 W/m2
01:03 9.4 °C 9.3 °C 1021.2 hPa Ruhig     99 % 0.0 mm 0.00 W/m2
01:09 9.3 °C 9.2 °C 1021.6 hPa Ruhig     99 % 0.0 mm 0.00 W/m2
01:14 9.3 °C 9.2 °C 1021.6 hPa Ruhig     99 % 0.0 mm 0.00 W/m2
01:20 9.3 °C 9.2 °C 1021.6 hPa Ruhig     99 % 0.0 mm 0.00 W/m2
01:25 9.3 °C 9.2 °C 1021.6 hPa Ruhig     99 % 0.0 mm 0.00 W/m2
01:30 9.3 °C 9.2 °C 1021.6 hPa Ruhig     99 % 0.0 mm 0.00 W/m2
01:36 9.2 °C 9.1 °C 1021.6 hPa Ruhig     99 % 0.0 mm 0.00 W/m2
01:41 9.2 °C 9.1 °C 1021.6 hPa Ruhig     99 % 0.0 mm 0.00 W/m2
01:46 9.2 °C 9.1 °C 1021.2 hPa Ruhig     99 % 0.0 mm 0.00 W/m2
01:52 9.1 °C 9.0 °C 1021.6 hPa Ruhig     99 % 0.0 mm 0.00 W/m2
01:57 9.1 °C 9.0 °C 1021.6 hPa Ruhig     99 % 0.0 mm 0.00 W/m2
02:02 9.1 °C 9.0 °C 1021.2 hPa Ruhig     99 % 0.0 mm 0.00 W/m2
02:08 9.1 °C 9.0 °C 1021.6 hPa Ruhig     99 % 0.0 mm 0.00 W/m2
02:13 9.1 °C 9.0 °C 1021.6 hPa Ruhig     99 % 0.0 mm 0.00 W/m2
02:18 9.0 °C 8.9 °C 1021.6 hPa Ruhig     99 % 0.0 mm 0.00 W/m2
02:24 9.0 °C 8.9 °C 1021.6 hPa Ruhig     99 % 0.0 mm 0.00 W/m2
02:29 9.0 °C 8.9 °C 1021.6 hPa Ruhig     99 % 0.0 mm 0.00 W/m2
02:34 9.0 °C 8.9 °C 1021.6 hPa Ruhig     99 % 0.0 mm 0.00 W/m2
02:40 8.9 °C 8.8 °C 1021.6 hPa Ruhig     99 % 0.0 mm 0.00 W/m2
02:45 8.9 °C 8.8 °C 1021.6 hPa Ruhig     99 % 0.0 mm 0.00 W/m2
02:50 8.9 °C 8.8 °C 1021.6 hPa Ruhig     99 % 0.0 mm 0.00 W/m2
02:56 8.9 °C 8.8 °C 1021.6 hPa Ruhig     99 % 0.0 mm 0.00 W/m2
03:01 8.9 °C 8.8 °C 1021.2 hPa Ruhig     99 % 0.0 mm 0.00 W/m2
03:06 8.9 °C 8.8 °C 1021.2 hPa Ruhig     99 % 0.0 mm 0.00 W/m2
03:12 8.8 °C 8.7 °C 1021.2 hPa Ruhig     99 % 0.0 mm 0.00 W/m2
03:17 8.8 °C 8.7 °C 1021.2 hPa Ruhig     99 % 0.0 mm 0.00 W/m2
03:22 8.8 °C 8.7 °C 1021.2 hPa Ruhig     99 % 0.0 mm 0.00 W/m2
03:28 8.8 °C 8.7 °C 1021.2 hPa Ruhig     99 % 0.0 mm 0.00 W/m2
03:33 8.8 °C 8.7 °C 1021.2 hPa Ruhig     99 % 0.0 mm 0.00 W/m2
03:38 8.8 °C 8.7 °C 1021.2 hPa Ruhig     99 % 0.0 mm 0.00 W/m2
03:44 8.7 °C 8.6 °C 1021.2 hPa Ruhig     99 % 0.0 mm 0.00 W/m2
03:49 8.7 °C 8.6 °C 1021.2 hPa Ruhig     99 % 0.0 mm 0.00 W/m2
03:55 8.7 °C 8.6 °C 1021.2 hPa Ruhig     99 % 0.0 mm 0.00 W/m2
04:01 8.6 °C 8.5 °C 1021.2 hPa Ruhig     99 % 0.0 mm 0.00 W/m2
04:06 8.6 °C 8.5 °C 1021.2 hPa Ruhig     99 % 0.0 mm 0.00 W/m2
04:11 8.6 °C 8.5 °C 1021.2 hPa Ruhig     99 % 0.0 mm 0.00 W/m2
04:22 8.5 °C 8.4 °C 1020.9 hPa Ruhig     99 % 0.0 mm 0.00 W/m2
04:27 8.5 °C 8.4 °C 1021.2 hPa Ruhig     99 % 0.0 mm 0.00 W/m2
04:33 8.4 °C 8.3 °C 1021.2 hPa Ruhig     99 % 0.0 mm 0.00 W/m2
04:38 8.4 °C 8.3 °C 1020.9 hPa Ruhig     99 % 0.0 mm 0.00 W/m2
04:43 8.3 °C 8.2 °C 1021.2 hPa Ruhig     99 % 0.0 mm 0.00 W/m2
04:48 8.2 °C 8.1 °C 1021.2 hPa Ruhig     99 % 0.0 mm 0.00 W/m2
04:59 8.1 °C 8.0 °C 1021.2 hPa Ruhig     99 % 0.0 mm 0.00 W/m2
05:05 8.0 °C 7.9 °C 1020.9 hPa Ruhig     99 % 0.0 mm 0.00 W/m2
05:10 8.0 °C 7.9 °C 1021.2 hPa Ruhig     99 % 0.0 mm 0.00 W/m2
05:15 7.9 °C 7.8 °C 1021.2 hPa Ruhig     99 % 0.0 mm 0.00 W/m2
05:21 7.9 °C 7.8 °C 1021.2 hPa Ruhig     99 % 0.0 mm 0.00 W/m2
05:26 7.8 °C 7.7 °C 1021.2 hPa Ruhig     99 % 0.0 mm 0.00 W/m2
05:31 7.8 °C 7.7 °C 1021.2 hPa Ruhig     99 % 0.0 mm 0.00 W/m2
05:37 7.7 °C 7.6 °C 1020.9 hPa Ruhig     99 % 0.0 mm 0.00 W/m2
05:42 7.6 °C 7.5 °C 1020.9 hPa Ruhig     99 % 0.0 mm 0.00 W/m2
05:47 7.5 °C 7.4 °C 1020.9 hPa Ruhig     99 % 0.0 mm 0.00 W/m2
05:53 7.5 °C 7.4 °C 1020.9 hPa Ruhig     99 % 0.0 mm 0.00 W/m2
05:58 7.4 °C 7.3 °C 1020.9 hPa Ruhig     99 % 0.0 mm 0.00 W/m2
06:03 7.3 °C 7.2 °C 1021.2 hPa Ruhig     99 % 0.0 mm 0.00 W/m2
06:09 7.2 °C 7.1 °C 1020.9 hPa Ruhig     99 % 0.0 mm 0.00 W/m2
06:14 7.2 °C 7.1 °C 1020.9 hPa Ruhig     99 % 0.0 mm 0.00 W/m2
06:19 7.2 °C 7.1 °C 1021.2 hPa Ruhig     99 % 0.0 mm 0.00 W/m2
06:25 7.1 °C 7.0 °C 1020.9 hPa Ruhig     99 % 0.0 mm 0.00 W/m2
06:30 7.1 °C 7.0 °C 1021.2 hPa Ruhig     99 % 0.0 mm 0.00 W/m2
06:35 7.1 °C 7.0 °C 1020.9 hPa Ruhig     99 % 0.0 mm 0.00 W/m2
06:41 7.1 °C 7.0 °C 1020.9 hPa Ruhig     99 % 0.0 mm 0.00 W/m2
06:46 7.1 °C 7.0 °C 1021.2 hPa Ruhig     99 % 0.0 mm 0.00 W/m2
06:51 7.2 °C 7.1 °C 1021.2 hPa Ruhig     99 % 0.0 mm 0.00 W/m2
06:57 7.2 °C 7.1 °C 1021.2 hPa Ruhig     99 % 0.0 mm 0.00 W/m2
07:02 7.2 °C 7.1 °C 1021.2 hPa Ruhig     99 % 0.0 mm 0.17 W/m2
07:07 7.4 °C 7.3 °C 1021.2 hPa Ruhig     99 % 0.0 mm 1.28 W/m2
07:12 7.5 °C 7.4 °C 1021.2 hPa Ruhig     99 % 0.0 mm 3.10 W/m2
07:17 7.6 °C 7.5 °C 1021.2 hPa Ruhig     99 % 0.0 mm 4.55 W/m2
07:22 7.6 °C 7.5 °C 1021.2 hPa Ruhig     99 % 0.0 mm 5.63 W/m2
07:27 7.6 °C 7.5 °C 1021.2 hPa Ruhig     99 % 0.0 mm 6.35 W/m2
07:32 7.7 °C 7.6 °C 1021.2 hPa Ruhig     99 % 0.0 mm 7.35 W/m2
07:37 7.7 °C 7.6 °C 1021.6 hPa Ruhig     99 % 0.0 mm 8.51 W/m2
07:43 7.8 °C 7.7 °C 1021.2 hPa Ruhig     99 % 0.0 mm 9.74 W/m2
07:48 7.8 °C 7.7 °C 1021.6 hPa Ruhig     99 % 0.0 mm 12.50 W/m2
07:53 7.8 °C 7.7 °C 1021.2 hPa Ruhig     99 % 0.0 mm 16.31 W/m2
07:58 7.9 °C 7.8 °C 1021.6 hPa Ruhig     99 % 0.0 mm 20.79 W/m2
08:03 7.9 °C 7.8 °C 1021.2 hPa Ruhig     99 % 0.0 mm 25.16 W/m2
08:08 7.9 °C 7.8 °C 1021.2 hPa Ruhig     99 % 0.0 mm 27.25 W/m2
08:13 8.0 °C 7.9 °C 1021.2 hPa Ruhig     99 % 0.0 mm 32.97 W/m2
08:18 8.1 °C 8.0 °C 1021.2 hPa Ruhig     99 % 0.0 mm 30.02 W/m2
08:23 8.2 °C 8.1 °C 1021.2 hPa Ruhig     99 % 0.0 mm 30.59 W/m2
08:28 8.3 °C 8.2 °C 1021.2 hPa Ruhig     99 % 0.0 mm 35.81 W/m2
08:33 8.4 °C 8.3 °C 1021.2 hPa Ruhig     99 % 0.0 mm 45.22 W/m2
08:38 8.5 °C 8.4 °C 1021.2 hPa Ruhig     99 % 0.0 mm 54.10 W/m2
08:43 8.6 °C 8.5 °C 1021.2 hPa Ruhig     99 % 0.0 mm 58.22 W/m2
08:48 8.7 °C 8.6 °C 1021.2 hPa Ruhig     99 % 0.0 mm 64.05 W/m2
08:53 8.8 °C 8.7 °C 1021.6 hPa Ruhig     99 % 0.0 mm 79.83 W/m2
08:59 8.9 °C 8.8 °C 1021.6 hPa Ruhig     99 % 0.0 mm 91.07 W/m2
09:04 9.0 °C 8.9 °C 1021.6 hPa Ruhig     99 % 0.0 mm 94.57 W/m2
09:09 9.2 °C 9.1 °C 1021.6 hPa Ruhig     99 % 0.0 mm 76.59 W/m2
09:14 9.3 °C 9.2 °C 1021.2 hPa Ruhig     99 % 0.0 mm 66.39 W/m2
09:19 9.4 °C 9.3 °C 1021.6 hPa Ruhig     99 % 0.0 mm 58.76 W/m2
09:24 9.5 °C 9.4 °C 1021.6 hPa Ruhig     99 % 0.0 mm 57.94 W/m2
09:29 9.6 °C 9.5 °C 1021.6 hPa Ruhig     99 % 0.0 mm 45.90 W/m2
09:34 9.7 °C 9.6 °C 1021.9 hPa Ruhig     99 % 0.0 mm 63.09 W/m2
09:39 9.8 °C 9.7 °C 1021.6 hPa Ruhig     99 % 0.0 mm 82.54 W/m2
09:44 9.9 °C 9.8 °C 1021.9 hPa Ruhig     99 % 0.0 mm 101.88 W/m2
09:49 10.0 °C 9.9 °C 1021.9 hPa Ruhig     99 % 0.0 mm 100.65 W/m2
09:54 10.1 °C 9.8 °C 1021.9 hPa Ruhig     98 % 0.0 mm 114.17 W/m2
09:59 10.3 °C 10.2 °C 1021.9 hPa Ruhig     99 % 0.0 mm 109.38 W/m2
10:04 10.4 °C 10.1 °C 1021.9 hPa Ruhig     98 % 0.0 mm 105.64 W/m2
10:08 10.6 °C 10.3 °C 1021.9 hPa Ruhig     98 % 0.0 mm 114.14 W/m2
10:13 10.7 °C 10.4 °C 1021.9 hPa Ruhig     98 % 0.0 mm 102.17 W/m2
10:18 10.9 °C 10.5 °C 1022.2 hPa Ruhig     97 % 0.0 mm 94.08 W/m2
10:23 11.0 °C 10.7 °C 1022.2 hPa Ruhig     98 % 0.0 mm 93.76 W/m2
10:28 11.0 °C 10.6 °C 1021.9 hPa Ruhig     97 % 0.0 mm 86.19 W/m2
10:33 11.1 °C 10.5 °C 1022.2 hPa Ruhig     96 % 0.0 mm 87.19 W/m2
10:38 11.1 °C 10.7 °C 1022.2 hPa Ruhig     97 % 0.0 mm 85.99 W/m2
10:43 11.1 °C 10.7 °C 1021.9 hPa Ruhig     97 % 0.0 mm 92.44 W/m2
10:48 11.1 °C 10.5 °C 1022.2 hPa Ruhig     96 % 0.0 mm 94.98 W/m2
10:53 11.2 °C 10.6 °C 1022.2 hPa Ruhig     96 % 0.0 mm 97.90 W/m2
10:54 11.2 °C 10.6 °C 1022.2 hPa Ruhig     96 % 0.0 mm 98.66 W/m2
10:59 11.3 °C 10.5 °C 1022.2 hPa Ruhig     95 % 0.0 mm 123.92 W/m2
11:04 11.5 °C 10.7 °C 1022.2 hPa Ruhig     95 % 0.0 mm 137.85 W/m2
11:09 11.7 °C 10.3 °C 1022.2 hPa Ruhig     91 % 0.0 mm 136.42 W/m2
11:14 11.9 °C 10.5 °C 1022.2 hPa Ruhig     91 % 0.0 mm 154.26 W/m2
11:19 12.2 °C 10.8 °C 1022.2 hPa Ruhig     91 % 0.0 mm 173.42 W/m2
11:24 12.4 °C 10.7 °C 1022.2 hPa Ruhig     89 % 0.0 mm 187.12 W/m2
11:29 12.6 °C 11.2 °C 1022.2 hPa Ruhig     91 % 0.0 mm 194.59 W/m2
11:34 12.9 °C 10.6 °C 1022.2 hPa Ruhig     86 % 0.0 mm 207.36 W/m2
11:39 13.1 °C 10.8 °C 1022.2 hPa Ruhig     86 % 0.0 mm 208.87 W/m2
11:44 13.4 °C 11.3 °C 1022.6 hPa Ruhig     87 % 0.0 mm 192.00 W/m2
11:49 13.7 °C 10.7 °C 1022.2 hPa Ruhig     82 % 0.0 mm 217.05 W/m2
11:55 14.0 °C 11.4 °C 1022.2 hPa Ruhig     84 % 0.0 mm 203.24 W/m2
12:00 14.2 °C 10.6 °C 1022.2 hPa Ruhig     79 % 0.0 mm 203.24 W/m2
12:05 14.5 °C 11.5 °C 1022.2 hPa Ruhig     82 % 0.0 mm 198.42 W/m2
12:10 14.6 °C 11.6 °C 1022.2 hPa Ruhig     82 % 0.0 mm 190.36 W/m2
12:15 14.7 °C 11.3 °C 1022.2 hPa Ruhig     80 % 0.0 mm 151.55 W/m2
12:16 14.7 °C 11.3 °C 1022.2 hPa Ruhig     80 % 0.0 mm 147.23 W/m2
12:21 14.8 °C 11.6 °C 1022.2 hPa Ruhig     81 % 0.0 mm 132.39 W/m2
12:26 14.8 °C 12.1 °C 1022.2 hPa Ruhig     84 % 0.0 mm 122.02 W/m2
12:31 14.7 °C 12.0 °C 1022.2 hPa Ruhig     84 % 0.0 mm 125.09 W/m2
12:36 14.7 °C 11.9 °C 1022.2 hPa Ruhig     83 % 0.0 mm 116.68 W/m2
12:41 14.6 °C 11.9 °C 1022.2 hPa Ruhig     84 % 0.0 mm 113.70 W/m2
12:46 14.5 °C 12.0 °C 1022.2 hPa Ruhig     85 % 0.0 mm 103.71 W/m2
12:51 14.4 °C 11.9 °C 1022.2 hPa Ruhig     85 % 0.0 mm 101.26 W/m2
12:56 14.3 °C 12.4 °C 1022.2 hPa Ruhig     88 % 0.0 mm 117.64 W/m2
13:01 14.3 °C 11.8 °C 1022.2 hPa Ruhig     85 % 0.0 mm 124.24 W/m2
13:06 14.3 °C 12.0 °C 1022.2 hPa Ruhig     86 % 0.0 mm 166.68 W/m2
13:11 14.4 °C 11.9 °C 1022.2 hPa Ruhig     85 % 0.0 mm 230.13 W/m2
13:16 14.6 °C 11.9 °C 1022.2 hPa Ruhig     84 % 0.0 mm 377.08 W/m2
13:21 14.8 °C 11.6 °C 1022.2 hPa Ruhig     81 % 0.0 mm 281.38 W/m2
13:27 15.0 °C 12.2 °C 1021.9 hPa Ruhig     83 % 0.0 mm 282.23 W/m2
13:32 15.3 °C 11.3 °C 1022.2 hPa Ruhig     77 % 0.0 mm 269.38 W/m2
13:37 15.6 °C 11.6 °C 1021.9 hPa Ruhig     77 % 0.0 mm 277.33 W/m2
13:42 15.8 °C 12.2 °C 1022.2 hPa Ruhig     79 % 0.0 mm 214.10 W/m2
13:47 16.0 °C 11.8 °C 1021.9 hPa Ruhig     76 % 0.0 mm 173.92 W/m2
13:52 16.0 °C 11.8 °C 1021.9 hPa Ruhig     76 % 0.0 mm 169.07 W/m2
13:57 16.0 °C 11.4 °C 1022.2 hPa Ruhig     74 % 0.0 mm 223.74 W/m2
14:02 16.1 °C 12.3 °C 1022.2 hPa Ruhig     78 % 0.0 mm 353.14 W/m2
14:07 16.1 °C 11.3 °C 1022.2 hPa Ruhig     73 % 0.0 mm 270.17 W/m2
14:12 16.2 °C 11.8 °C 1021.9 hPa Ruhig     75 % 0.0 mm 201.66 W/m2
14:17 16.3 °C 11.7 °C 1021.9 hPa Ruhig     74 % 0.0 mm 221.23 W/m2
14:22 16.4 °C 11.8 °C 1021.9 hPa Ruhig     74 % 0.0 mm 259.40 W/m2
14:27 16.5 °C 11.7 °C 1021.9 hPa Ruhig     73 % 0.0 mm 261.03 W/m2
14:32 16.5 °C 11.5 °C 1021.9 hPa Ruhig     72 % 0.0 mm 251.10 W/m2
14:37 16.5 °C 11.2 °C 1021.9 hPa Ruhig     71 % 0.0 mm 268.54 W/m2
14:43 16.6 °C 11.8 °C 1021.9 hPa Ruhig     73 % 0.0 mm 268.97 W/m2
14:48 16.7 °C 11.9 °C 1021.9 hPa Ruhig     73 % 0.0 mm 274.11 W/m2
14:53 16.8 °C 11.3 °C 1021.9 hPa Ruhig     70 % 0.0 mm 266.23 W/m2
14:58 16.9 °C 11.8 °C 1021.9 hPa Ruhig     72 % 0.0 mm 294.53 W/m2
15:03 17.1 °C 11.4 °C 1021.9 hPa Ruhig     69 % 0.0 mm 285.71 W/m2
15:08 17.2 °C 11.5 °C 1021.9 hPa Ruhig     69 % 0.0 mm 223.50 W/m2
15:13 17.2 °C 12.1 °C 1021.9 hPa Ruhig     72 % 0.0 mm 174.09 W/m2
15:18 17.2 °C 11.0 °C 1021.9 hPa Ruhig     67 % 0.0 mm 138.50 W/m2
15:23 17.1 °C 12.0 °C 1022.2 hPa Ruhig     72 % 0.0 mm 115.05 W/m2
15:28 17.0 °C 11.7 °C 1021.9 hPa Ruhig     71 % 0.0 mm 134.76 W/m2
15:33 16.9 °C 11.2 °C 1021.9 hPa Ruhig     69 % 0.0 mm 314.21 W/m2
15:38 16.8 °C 10.9 °C 1021.9 hPa Ruhig     68 % 0.0 mm 419.63 W/m2
15:43 16.8 °C 10.7 °C 1022.2 hPa Ruhig     67 % 0.0 mm 289.80 W/m2
15:48 16.8 °C 11.3 °C 1021.9 hPa Ruhig     70 % 0.0 mm 192.17 W/m2
15:53 16.7 °C 11.4 °C 1021.9 hPa Ruhig     71 % 0.0 mm 179.82 W/m2
15:59 16.7 °C 11.6 °C 1021.9 hPa Ruhig     72 % 0.0 mm 186.10 W/m2
16:04 16.5 °C 10.8 °C 1022.2 hPa Ruhig     69 % 0.0 mm 213.55 W/m2
16:09 16.4 °C 10.9 °C 1022.2 hPa Ruhig     70 % 0.0 mm 221.20 W/m2
16:14 16.3 °C 10.4 °C 1022.2 hPa Ruhig     68 % 0.0 mm 210.92 W/m2
16:19 16.2 °C 10.7 °C 1022.2 hPa Ruhig     70 % 0.0 mm 182.42 W/m2
16:24 16.2 °C 11.2 °C 1021.9 hPa Ruhig     72 % 0.0 mm 174.15 W/m2
16:29 16.2 °C 11.0 °C 1021.9 hPa Ruhig     71 % 0.0 mm 147.96 W/m2
16:34 16.1 °C 11.3 °C 1021.9 hPa Ruhig     73 % 0.0 mm 140.25 W/m2
16:39 16.0 °C 11.0 °C 1022.2 hPa Ruhig     72 % 0.0 mm 110.84 W/m2
16:44 15.8 °C 11.0 °C 1022.2 hPa Ruhig     73 % 0.0 mm 106.78 W/m2
16:49 15.6 °C 11.0 °C 1021.9 hPa Ruhig     74 % 0.0 mm 99.77 W/m2
16:54 15.4 °C 11.2 °C 1022.2 hPa Ruhig     76 % 0.0 mm 89.84 W/m2
16:59 15.3 °C 10.9 °C 1022.2 hPa Ruhig     75 % 0.0 mm 89.35 W/m2
17:04 15.1 °C 10.9 °C 1022.2 hPa Ruhig     76 % 0.0 mm 97.17 W/m2
Neuhaus/WN - Oberpfalz
Compliments of Weather Underground - 1 mb